Chalk, Texas
Current Conditions -  °F | °C
As of 3:53 AM on Monday 26 Jan 2015 (Local Time) from KCDS Reporting Station
Clear Clear  
Wind Chill: 33°   Ceiling: Unl
Heat Index: 38°   Visibility: 10mi
Dew Point: 31°   Wind: 7mph
Humidity: 76%   Direction: 270°W
Pressure: 30.21"   Gusts: NA
Location:  33.87°N, 100.22°W
Report Text: KCDS 260953Z AUTO 27006KT 10SM CLR 03/M01 A3021 RMK AO2 SLP224 T00331006 $
Loading
Personal Weather Stations






























Interactive Weather Map New forecast layout! Learn more

10-Day Weather Forecast

Advertisements
Track Severe Weather on mobile